Time;durP1;ratioP1;P1;durP2;ratioP2;P2;SDS_P1;SDS_P2;PMS_P1;PMS_P2;Temp;Humidity;BMP_temperature;BMP_pressure;BME280_temperature;BME280_humidity;BME280_pressure;Samples;Min_cycle;Max_cycle;Signal;HPM_P1;HPM_P2
2022/05/08 00:01:07;;;;;;;9.03;6.43;;;11.40;99.90;;;;;;5080067;28;20791;-77
2022/05/08 00:03:34;;;;;;;8.90;6.20;;;11.60;99.90;;;;;;5085088;28;20945;-74
2022/05/08 00:06:07;;;;;;;7.37;6.10;;;11.60;99.90;;;;;;5076996;28;20814;-77
2022/05/08 00:08:33;;;;;;;6.67;5.50;;;11.40;99.90;;;;;;5081590;28;20507;-74
2022/05/08 00:11:00;;;;;;;7.27;5.93;;;11.40;99.90;;;;;;5073707;28;20515;-79
2022/05/08 00:13:30;;;;;;;6.23;5.63;;;11.40;99.90;;;;;;5080718;28;20456;-78
2022/05/08 00:15:57;;;;;;;10.97;6.03;;;11.30;99.90;;;;;;5075604;28;20881;-78
2022/05/08 00:18:24;;;;;;;8.77;6.53;;;11.20;99.90;;;;;;5081115;28;20481;-78
2022/05/08 00:20:50;;;;;;;8.63;7.00;;;11.10;99.90;;;;;;5072607;28;20447;-78
2022/05/08 00:23:19;;;;;;;8.90;6.93;;;11.00;99.90;;;;;;5085285;28;20462;-78
2022/05/08 00:25:45;;;;;;;7.43;6.20;;;11.10;99.90;;;;;;5082241;28;20452;-76
2022/05/08 00:28:12;;;;;;;10.20;6.37;;;11.00;99.90;;;;;;5080837;28;20458;-77
2022/05/08 00:30:40;;;;;;;6.33;5.73;;;11.00;99.90;;;;;;5075229;28;20483;-78
2022/05/08 00:33:07;;;;;;;9.00;6.83;;;10.90;99.90;;;;;;5080028;28;20484;-76
2022/05/08 00:35:34;;;;;;;7.97;6.40;;;10.80;99.90;;;;;;5083706;28;20453;-77
2022/05/08 00:38:01;;;;;;;6.83;5.83;;;11.00;99.90;;;;;;5086251;28;20530;-78
2022/05/08 00:40:32;;;;;;;7.80;6.93;;;11.10;99.90;;;;;;5087750;28;20460;-78
2022/05/08 00:43:32;;;;;;;9.60;6.63;;;11.00;99.90;;;;;;5078899;28;20457;-78
2022/05/08 00:46:03;;;;;;;7.73;6.77;;;11.00;99.90;;;;;;5081850;28;20458;-78
2022/05/08 00:48:30;;;;;;;8.87;7.03;;;11.00;99.90;;;;;;5074593;28;20532;-79
2022/05/08 00:50:58;;;;;;;11.10;6.50;;;11.00;99.90;;;;;;5085508;28;20987;-78
2022/05/08 00:53:28;;;;;;;9.70;7.00;;;11.10;99.90;;;;;;5079121;28;20479;-78
2022/05/08 00:55:56;;;;;;;7.97;5.60;;;11.10;99.90;;;;;;5072739;28;20454;-78
2022/05/08 00:58:24;;;;;;;7.67;6.33;;;10.90;99.90;;;;;;5087166;28;20968;-78
2022/05/08 01:00:50;;;;;;;8.17;5.40;;;10.80;99.90;;;;;;5088200;28;20816;-78
2022/05/08 01:03:17;;;;;;;7.23;6.00;;;10.80;99.90;;;;;;5088920;28;20452;-78
2022/05/08 01:05:45;;;;;;;10.10;6.70;;;10.80;99.90;;;;;;5085937;28;20486;-78
2022/05/08 01:08:13;;;;;;;7.00;6.23;;;10.70;99.90;;;;;;5073965;28;20458;-78
2022/05/08 01:10:40;;;;;;;7.37;6.63;;;10.60;99.90;;;;;;5079279;28;20490;-78
2022/05/08 01:13:10;;;;;;;7.47;6.53;;;10.70;99.90;;;;;;5089040;28;20445;-77
2022/05/08 01:15:41;;;;;;;7.97;6.40;;;10.80;99.90;;;;;;5083011;28;20982;-77
2022/05/08 01:18:08;;;;;;;6.50;5.90;;;10.70;99.90;;;;;;5077865;28;20895;-78
2022/05/08 01:20:35;;;;;;;7.30;6.60;;;10.60;99.90;;;;;;5080606;28;20440;-74
2022/05/08 01:23:05;;;;;;;8.23;6.80;;;10.50;99.90;;;;;;5074037;28;20456;-77
2022/05/08 01:25:33;;;;;;;7.93;7.03;;;10.70;99.90;;;;;;5074586;28;21010;-75
2022/05/08 01:28:00;;;;;;;7.87;6.70;;;10.60;99.90;;;;;;5076015;28;20451;-78
2022/05/08 01:30:27;;;;;;;7.63;6.53;;;10.50;99.90;;;;;;5077674;28;20484;-79
2022/05/08 01:32:54;;;;;;;8.00;6.37;;;10.50;99.90;;;;;;5082900;28;20477;-77
2022/05/08 01:35:21;;;;;;;7.27;5.83;;;10.40;99.90;;;;;;5076840;28;20459;-78
2022/05/08 01:37:48;;;;;;;9.57;6.30;;;10.30;99.90;;;;;;5091372;28;20449;-77
2022/05/08 01:40:17;;;;;;;7.80;6.73;;;10.30;99.90;;;;;;5090225;28;21019;-78
2022/05/08 01:42:45;;;;;;;7.00;6.30;;;10.30;99.90;;;;;;5075848;28;20448;-78
2022/05/08 01:45:12;;;;;;;8.40;7.30;;;10.20;99.90;;;;;;5079061;28;20934;-78
2022/05/08 01:50:24;;;;;;;9.10;6.70;;;10.40;99.90;;;;;;5078881;28;20425;-76
2022/05/08 01:52:51;;;;;;;8.87;6.70;;;10.30;99.90;;;;;;5077763;28;20489;-77
2022/05/08 01:55:19;;;;;;;8.40;7.50;;;10.40;99.90;;;;;;5079335;28;20533;-76
2022/05/08 01:57:46;;;;;;;9.30;7.00;;;10.40;99.90;;;;;;5079985;28;20533;-76
2022/05/08 02:00:14;;;;;;;7.93;6.63;;;10.30;99.90;;;;;;5090026;28;20855;-77
2022/05/08 02:02:43;;;;;;;10.17;7.10;;;10.20;99.90;;;;;;5075525;28;20465;-76
2022/05/08 02:05:10;;;;;;;12.23;7.23;;;10.20;99.90;;;;;;5079440;28;20447;-76
2022/05/08 02:07:37;;;;;;;9.17;6.47;;;10.00;99.90;;;;;;5077618;28;20458;-74
2022/05/08 02:10:05;;;;;;;7.50;6.20;;;10.10;99.90;;;;;;5083613;28;20965;-76
2022/05/08 02:12:33;;;;;;;8.90;6.90;;;10.20;99.90;;;;;;5078886;28;20488;-74
2022/05/08 02:15:00;;;;;;;6.83;6.03;;;10.20;99.90;;;;;;5085291;28;20456;-79
2022/05/08 02:17:27;;;;;;;8.87;6.93;;;10.30;99.90;;;;;;5085409;28;20459;-78
2022/05/08 02:19:54;;;;;;;12.20;7.93;;;10.30;99.90;;;;;;5071660;28;20850;-77
2022/05/08 02:22:20;;;;;;;8.60;6.70;;;10.30;99.90;;;;;;5072975;28;20534;-76
2022/05/08 02:24:47;;;;;;;8.60;7.37;;;10.10;99.90;;;;;;5079699;28;20457;-76
2022/05/08 02:27:14;;;;;;;11.83;8.03;;;10.10;99.90;;;;;;5085079;28;20939;-77
2022/05/08 02:29:42;;;;;;;11.10;6.87;;;10.20;99.90;;;;;;5081578;28;20447;-78
2022/05/08 02:32:10;;;;;;;7.57;6.80;;;10.10;99.90;;;;;;5080403;28;20481;-77
2022/05/08 02:34:37;;;;;;;8.43;7.07;;;10.10;99.90;;;;;;5087049;28;20451;-76
2022/05/08 02:37:03;;;;;;;11.30;7.90;;;10.20;99.90;;;;;;5079147;28;20457;-76
2022/05/08 02:39:30;;;;;;;10.00;8.30;;;10.20;99.90;;;;;;5083834;28;20454;-76
2022/05/08 02:41:57;;;;;;;9.37;6.63;;;10.20;99.90;;;;;;5084764;28;20454;-76
2022/05/08 02:44:24;;;;;;;8.33;7.43;;;10.30;99.90;;;;;;5081575;28;20451;-77
2022/05/08 02:46:52;;;;;;;12.53;7.00;;;10.20;99.90;;;;;;5083314;28;20444;-78
2022/05/08 02:49:19;;;;;;;9.43;7.57;;;10.10;99.90;;;;;;5081821;28;20530;-77
2022/05/08 02:51:46;;;;;;;10.83;7.63;;;10.10;99.90;;;;;;5073960;28;20480;-78
2022/05/08 02:54:13;;;;;;;9.60;6.50;;;10.00;99.90;;;;;;5072023;28;20802;-79
2022/05/08 02:59:24;;;;;;;7.00;6.30;;;10.10;99.90;;;;;;5083627;28;20494;-77
2022/05/08 03:01:52;;;;;;;7.57;5.97;;;10.10;99.90;;;;;;5076530;28;20577;-78
2022/05/08 03:04:19;;;;;;;8.93;6.67;;;10.00;99.90;;;;;;5077782;28;20449;-79
2022/05/08 03:06:46;;;;;;;8.73;7.63;;;10.00;99.90;;;;;;5075779;28;20449;-78
2022/05/08 03:09:13;;;;;;;10.43;7.90;;;10.00;99.90;;;;;;5078066;28;20449;-76
2022/05/08 03:11:39;;;;;;;11.00;7.30;;;9.90;99.90;;;;;;5077032;28;20541;-78
2022/05/08 03:14:06;;;;;;;9.77;6.97;;;10.00;99.90;;;;;;5087187;28;20865;-76
2022/05/08 03:16:33;;;;;;;11.50;8.87;;;10.10;99.90;;;;;;5078328;28;20536;-76
2022/05/08 03:19:01;;;;;;;9.50;8.00;;;10.10;99.90;;;;;;5077327;28;20521;-78
2022/05/08 03:21:28;;;;;;;9.20;7.27;;;10.00;99.90;;;;;;5083822;28;20570;-79
2022/05/08 03:23:55;;;;;;;9.43;7.50;;;9.90;99.90;;;;;;5071472;28;20481;-78
2022/05/08 03:26:24;;;;;;;10.03;7.17;;;9.90;99.90;;;;;;5080538;28;20452;-78
2022/05/08 03:28:51;;;;;;;9.23;7.60;;;9.80;99.90;;;;;;5077159;28;20453;-79
2022/05/08 03:31:18;;;;;;;9.57;7.07;;;9.80;99.90;;;;;;5082745;28;20562;-78
2022/05/08 03:33:45;;;;;;;10.53;7.57;;;9.90;99.90;;;;;;5083693;28;20456;-78
2022/05/08 03:36:14;;;;;;;9.70;8.20;;;10.10;99.90;;;;;;5080051;28;20446;-79
2022/05/08 03:38:42;;;;;;;8.73;6.90;;;10.10;99.90;;;;;;5075026;28;20518;-77
2022/05/08 03:41:09;;;;;;;13.53;8.20;;;10.00;99.90;;;;;;5079678;28;21055;-76
2022/05/08 03:43:37;;;;;;;8.63;6.53;;;9.90;99.90;;;;;;5077183;28;20443;-76
2022/05/08 03:46:03;;;;;;;13.80;8.23;;;9.80;99.90;;;;;;5081346;28;20474;-76
2022/05/08 03:48:31;;;;;;;8.77;7.70;;;9.70;99.90;;;;;;5077670;28;20535;-78
2022/05/08 03:50:58;;;;;;;11.20;7.90;;;9.70;99.90;;;;;;5080954;28;20442;-77
2022/05/08 03:53:26;;;;;;;11.37;7.93;;;9.60;99.90;;;;;;5073601;28;20475;-77
2022/05/08 03:55:53;;;;;;;11.50;7.93;;;9.60;99.90;;;;;;5080338;28;20604;-78
2022/05/08 03:58:19;;;;;;;11.87;7.87;;;9.60;99.90;;;;;;5077215;28;20448;-78
2022/05/08 04:00:46;;;;;;;11.10;7.70;;;9.50;99.90;;;;;;5078482;28;20488;-78
2022/05/08 04:03:13;;;;;;;8.93;7.03;;;9.40;99.90;;;;;;5077317;28;20491;-78
2022/05/08 04:05:40;;;;;;;9.60;6.33;;;9.50;99.90;;;;;;5078833;28;20866;-77
2022/05/08 04:08:08;;;;;;;9.40;7.33;;;9.70;99.90;;;;;;5084089;28;20813;-77
2022/05/08 04:10:36;;;;;;;8.70;7.03;;;9.50;99.90;;;;;;5089201;28;20480;-74
2022/05/08 04:13:03;;;;;;;8.13;6.83;;;9.50;99.90;;;;;;5080859;28;20460;-77
2022/05/08 04:18:14;;;;;;;10.30;7.80;;;9.40;99.90;;;;;;5088710;28;20423;-78
2022/05/08 04:20:41;;;;;;;7.97;6.90;;;9.30;99.90;;;;;;5081673;28;20831;-78
2022/05/08 04:25:54;;;;;;;10.57;7.60;;;9.30;99.90;;;;;;5089654;28;20504;-77
2022/05/08 04:28:21;;;;;;;10.80;7.70;;;9.20;99.90;;;;;;5091654;28;20974;-77
2022/05/08 04:30:50;;;;;;;8.50;6.80;;;9.20;99.90;;;;;;5090846;28;20519;-78
2022/05/08 04:33:17;;;;;;;13.13;8.50;;;9.20;99.90;;;;;;5093073;28;20448;-77
2022/05/08 04:35:43;;;;;;;12.10;8.20;;;9.30;99.90;;;;;;5078857;28;21001;-77
2022/05/08 04:38:11;;;;;;;11.87;8.43;;;9.40;99.90;;;;;;5087329;28;20456;-78
2022/05/08 04:40:39;;;;;;;11.43;7.37;;;9.30;99.90;;;;;;5089765;28;20448;-78
2022/05/08 04:43:08;;;;;;;12.50;8.00;;;9.20;99.90;;;;;;5089192;28;20486;-76
2022/05/08 04:45:34;;;;;;;13.53;9.07;;;9.30;99.90;;;;;;5083503;28;20448;-78
2022/05/08 04:48:01;;;;;;;11.97;7.50;;;9.30;99.90;;;;;;5080335;28;20832;-76
2022/05/08 04:50:28;;;;;;;12.80;7.87;;;9.40;99.90;;;;;;5083111;28;20459;-77
2022/05/08 04:52:55;;;;;;;9.40;7.30;;;9.30;99.90;;;;;;5087203;28;20566;-77
2022/05/08 04:55:22;;;;;;;15.83;8.80;;;9.40;99.90;;;;;;5079221;28;20453;-77
2022/05/08 04:57:49;;;;;;;11.13;7.90;;;9.50;99.90;;;;;;5085037;28;21023;-77
2022/05/08 05:00:18;;;;;;;13.67;7.90;;;9.50;99.90;;;;;;5093393;28;21022;-77
2022/05/08 05:02:45;;;;;;;10.23;8.87;;;9.80;99.90;;;;;;5088151;28;20562;-76
2022/05/08 05:05:12;;;;;;;9.60;7.07;;;9.80;99.90;;;;;;5083183;28;20499;-76
2022/05/08 05:07:41;;;;;;;10.53;8.47;;;9.80;99.90;;;;;;5086853;28;20470;-77
2022/05/08 05:10:13;;;;;;;8.93;7.50;;;9.90;99.90;;;;;;5089446;28;20456;-75
2022/05/08 05:12:40;;;;;;;12.20;8.37;;;9.80;99.90;;;;;;5083484;28;20528;-76
2022/05/08 05:15:08;;;;;;;10.03;7.30;;;9.80;99.90;;;;;;5085669;28;20452;-75
2022/05/08 05:17:37;;;;;;;10.00;7.77;;;9.70;99.90;;;;;;5084103;28;20533;-73
2022/05/08 05:20:05;;;;;;;11.37;7.60;;;9.90;99.90;;;;;;5086132;28;20533;-76
2022/05/08 05:22:32;;;;;;;9.90;8.07;;;10.10;99.90;;;;;;5081578;28;20498;-74
2022/05/08 05:24:59;;;;;;;10.67;8.50;;;10.00;99.90;;;;;;5084259;28;20537;-77
2022/05/08 05:27:27;;;;;;;13.93;8.30;;;9.80;99.90;;;;;;5080000;28;20455;-77
2022/05/08 05:29:54;;;;;;;12.53;7.60;;;9.90;99.90;;;;;;5074188;28;20454;-77
2022/05/08 05:32:21;;;;;;;11.17;8.37;;;10.00;99.90;;;;;;5086630;28;20487;-77
2022/05/08 05:34:49;;;;;;;13.50;9.13;;;10.00;99.90;;;;;;5083888;28;20873;-76
2022/05/08 05:37:16;;;;;;;12.10;9.20;;;;;;;;;;5079843;28;20451;-77
2022/05/08 05:39:43;;;;;;;11.10;7.03;;;;;;;;;;5081325;28;21011;-78
2022/05/08 05:42:10;;;;;;;10.43;8.77;;;;;;;;;;5086202;28;20575;-79
2022/05/08 05:44:37;;;;;;;10.00;8.17;;;;;;;;;;5079873;28;20540;-75
2022/05/08 05:49:51;;;;;;;10.47;7.17;;;;;;;;;;5083098;28;20444;-75
2022/05/08 05:52:18;;;;;;;10.30;9.10;;;;;;;;;;5072460;28;20474;-77
2022/05/08 05:54:45;;;;;;;13.23;8.37;;;;;;;;;;5085932;28;20866;-77
2022/05/08 05:57:12;;;;;;;10.23;7.60;;;;;;;;;;5080889;28;20527;-77
2022/05/08 05:59:40;;;;;;;10.30;7.90;;;;;;;;;;5078481;28;20902;-77
2022/05/08 06:02:07;;;;;;;10.57;8.13;;;;;;;;;;5084108;28;20519;-77
2022/05/08 06:04:34;;;;;;;11.23;7.80;;;;;;;;;;5076555;28;20449;-74
2022/05/08 06:07:02;;;;;;;12.13;7.30;;;;;;;;;;5083889;28;20540;-78
2022/05/08 06:09:29;;;;;;;10.63;7.50;;;;;;;;;;5074443;28;20452;-77
2022/05/08 06:11:57;;;;;;;9.47;7.53;;;;;;;;;;5077817;28;20462;-78
2022/05/08 06:14:24;;;;;;;11.00;8.10;;;;;;;;;;5085679;28;20878;-76
2022/05/08 06:16:51;;;;;;;10.70;8.77;;;;;;;;;;5080437;28;20487;-77
2022/05/08 06:19:18;;;;;;;12.37;8.67;;;;;;;;;;5079047;28;20544;-78
2022/05/08 06:21:47;;;;;;;11.80;9.07;;;;;;;;;;5080395;28;20944;-77
2022/05/08 06:24:15;;;;;;;13.20;8.70;;;;;;;;;;5078665;28;20456;-77
2022/05/08 06:26:42;;;;;;;18.10;8.13;;;;;;;;;;5090662;28;20453;-77
2022/05/08 06:29:09;;;;;;;10.93;8.03;;;;;;;;;;5089173;28;20437;-78
2022/05/08 06:31:37;;;;;;;9.87;8.23;;;;;;;;;;5089507;28;20456;-74
2022/05/08 06:34:04;;;;;;;9.60;7.30;;;;;;;;;;5077457;28;20484;-76
2022/05/08 06:36:32;;;;;;;11.07;8.30;;;;;;;;;;5091109;28;20547;-77
2022/05/08 06:38:59;;;;;;;9.83;8.13;;;;;;;;;;5078567;28;20478;-77
2022/05/08 06:41:28;;;;;;;12.80;9.50;;;10.40;99.90;;;;;;5080364;28;21118;-77
2022/05/08 06:43:55;;;;;;;10.90;7.93;;;11.70;99.90;;;;;;5083895;28;20509;-77
2022/05/08 06:46:22;;;;;;;12.20;10.00;;;;;;;;;;5074811;28;20907;-78
2022/05/08 06:48:49;;;;;;;10.23;9.07;;;;;;;;;;5083749;28;20465;-78
2022/05/08 06:51:16;;;;;;;11.83;8.80;;;;;;;;;;5075649;28;20962;-77
2022/05/08 06:53:44;;;;;;;11.57;9.10;;;;;;;;;;5078066;28;20491;-76
2022/05/08 06:56:13;;;;;;;11.50;9.00;;;;;;;;;;5078216;28;20856;-78
2022/05/08 07:01:42;;;;;;;11.30;8.50;;;;;;;;;;5083424;28;20458;-77
2022/05/08 07:04:10;;;;;;;11.80;8.00;;;;;;;;;;5082331;28;20475;-77
2022/05/08 07:06:38;;;;;;;11.90;9.10;;;;;;;;;;5085609;28;20452;-76
2022/05/08 07:09:06;;;;;;;10.63;8.40;;;;;;;;;;5078698;28;20449;-78
2022/05/08 07:11:33;;;;;;;14.40;10.20;;;;;;;;;;5078211;28;20460;-75
2022/05/08 07:14:02;;;;;;;10.40;9.33;;;;;;;;;;5084599;28;20448;-76
2022/05/08 07:16:29;;;;;;;13.37;9.60;;;;;;;;;;5078338;28;20440;-78
2022/05/08 07:18:57;;;;;;;12.67;8.53;;;;;;;;;;5077675;28;20457;-76
2022/05/08 07:21:24;;;;;;;12.10;8.73;;;;;;;;;;5084621;28;20881;-79
2022/05/08 07:23:51;;;;;;;10.00;8.13;;;;;;;;;;5085653;28;20563;-77
2022/05/08 07:26:18;;;;;;;12.07;9.70;;;;;;;;;;5078607;28;20444;-76
2022/05/08 07:28:45;;;;;;;14.30;9.97;;;;;;;;;;5086731;28;20539;-77
2022/05/08 07:31:14;;;;;;;13.30;9.53;;;;;;;;;;5079398;28;20535;-78
2022/05/08 07:33:41;;;;;;;11.50;8.90;;;;;;;;;;5077144;28;20445;-77
2022/05/08 07:36:13;;;;;;;11.60;9.13;;;;;;;;;;5082562;28;20998;-77
2022/05/08 07:38:41;;;;;;;15.20;9.50;;;;;;;;;;5071875;28;20460;-77
2022/05/08 07:41:09;;;;;;;9.97;8.20;;;;;;;;;;5070726;28;20815;-78
2022/05/08 07:43:36;;;;;;;11.80;9.73;;;;;;;;;;5083088;28;21063;-77
2022/05/08 07:46:03;;;;;;;12.40;8.63;;;;;;;;;;5083503;28;20540;-77
2022/05/08 07:48:32;;;;;;;9.03;8.07;;;;;;;;;;5084671;28;20891;-79
2022/05/08 07:51:00;;;;;;;12.50;8.97;;;;;;;;;;5075284;28;20915;-79
2022/05/08 07:53:28;;;;;;;11.07;8.90;;;;;;;;;;5073799;28;20534;-76
2022/05/08 07:55:55;;;;;;;10.00;8.33;;;;;;;;;;5088947;28;20524;-75
2022/05/08 07:58:23;;;;;;;9.60;8.13;;;;;;;;;;5076205;28;21116;-76
2022/05/08 08:00:53;;;;;;;12.20;9.00;;;;;;;;;;5077605;28;20541;-76
2022/05/08 08:03:20;;;;;;;11.67;9.17;;;;;;;;;;5085463;28;20477;-77
2022/05/08 08:05:49;;;;;;;9.50;8.33;;;;;;;;;;5077498;28;20452;-77
2022/05/08 08:08:17;;;;;;;11.13;8.73;;;;;;;;;;5076336;28;20456;-75
2022/05/08 08:10:45;;;;;;;11.07;8.40;;;;;;;;;;5076319;28;20550;-77
2022/05/08 08:13:12;;;;;;;12.37;9.60;;;;;;;;;;5084078;28;20538;-78
2022/05/08 08:15:44;;;;;;;10.43;8.10;;;;;;;;;;5069761;28;20530;-78
2022/05/08 08:18:12;;;;;;;11.43;8.77;;;;;;;;;;5072442;28;20440;-74
2022/05/08 08:20:39;;;;;;;9.63;8.40;;;;;;;;;;5079181;28;20528;-73
2022/05/08 08:23:08;;;;;;;17.20;8.63;;;;;;;;;;5081374;28;20476;-79
2022/05/08 08:25:35;;;;;;;11.03;8.50;;;;;;;;;;5083230;28;20440;-78
2022/05/08 08:28:02;;;;;;;10.23;8.40;;;;;;;;;;5078969;28;20487;-78
2022/05/08 08:30:29;;;;;;;13.87;8.60;;;;;;;;;;5076055;28;20441;-79
2022/05/08 08:32:56;;;;;;;10.03;8.80;;;;;;;;;;5077736;28;20562;-79
2022/05/08 08:35:24;;;;;;;9.60;8.30;;;;;;;;;;5076753;28;20449;-75
2022/05/08 08:37:51;;;;;;;9.70;7.60;;;;;;;;;;5074258;28;20821;-78
2022/05/08 08:40:20;;;;;;;9.93;7.87;;;;;;;;;;5072683;28;20457;-76
2022/05/08 08:42:48;;;;;;;11.00;7.70;;;;;;;;;;5078997;28;20544;-79
2022/05/08 08:48:03;;;;;;;11.07;6.93;;;;;;;;;;5077156;28;20450;-77
2022/05/08 08:50:31;;;;;;;8.63;6.90;;;;;;;;;;5085330;28;20801;-78
2022/05/08 08:52:59;;;;;;;7.50;6.80;;;;;;;;;;5074995;28;20482;-78
2022/05/08 08:55:28;;;;;;;10.63;7.33;;;;;;;;;;5074513;28;20549;-76
2022/05/08 08:57:55;;;;;;;8.60;7.33;;;11.80;99.90;;;;;;5076226;28;20446;-78
2022/05/08 09:00:22;;;;;;;7.37;6.60;;;17.80;1.00;;;;;;5084602;28;20465;-78
2022/05/08 09:02:50;;;;;;;8.30;6.80;;;17.90;1.00;;;;;;5080053;28;20500;-75
2022/05/08 09:05:17;;;;;;;8.50;6.87;;;18.20;1.00;;;;;;5082729;28;21008;-78
2022/05/08 09:07:46;;;;;;;7.13;6.20;;;18.10;1.00;;;;;;5080942;28;20441;-76
2022/05/08 09:10:15;;;;;;;6.17;5.57;;;17.80;1.00;;;;;;5091206;28;20523;-77
2022/05/08 09:12:45;;;;;;;7.57;6.77;;;17.80;1.00;;;;;;5079214;28;20461;-77
2022/05/08 09:15:20;;;;;;;7.17;5.97;;;18.10;1.00;;;;;;5082038;28;20456;-77
2022/05/08 09:17:49;;;;;;;8.90;8.03;;;18.40;1.00;;;;;;5083792;28;20536;-76
2022/05/08 09:20:34;;;;;;;6.60;5.90;;;18.30;1.00;;;;;;5082483;28;20453;-77
2022/05/08 09:23:10;;;;;;;11.90;5.40;;;18.20;1.00;;;;;;5085064;28;20570;-76
2022/05/08 09:25:49;;;;;;;7.10;6.20;;;18.30;1.00;;;;;;5084856;28;20448;-76
2022/05/08 09:28:18;;;;;;;6.63;5.93;;;18.30;1.00;;;;;;5081376;28;20451;-76
2022/05/08 09:30:56;;;;;;;6.20;5.33;;;18.40;1.00;;;;;;5078935;28;20891;-76
2022/05/08 09:33:27;;;;;;;6.97;5.90;;;18.30;1.00;;;;;;5083500;28;20510;-77
2022/05/08 09:35:55;;;;;;;5.87;5.27;;;18.30;1.00;;;;;;5076369;28;20506;-77
2022/05/08 09:38:22;;;;;;;7.97;7.17;;;18.50;1.00;;;;;;5078026;28;21140;-77
2022/05/08 09:41:06;;;;;;;6.43;5.83;;;18.40;1.00;;;;;;5076019;28;20551;-77
2022/05/08 09:43:35;;;;;;;7.37;6.67;;;18.50;1.00;;;;;;5082671;28;20480;-77
2022/05/08 09:46:04;;;;;;;7.00;5.87;;;18.90;99.90;;;;;;5075272;28;20905;-76
2022/05/08 09:48:33;;;;;;;7.07;6.10;;;18.90;99.90;;;;;;5071696;28;20508;-77
2022/05/08 09:51:02;;;;;;;6.20;5.33;;;18.80;99.90;;;;;;5080313;28;20943;-77
2022/05/08 09:53:31;;;;;;;5.53;5.03;;;18.80;99.90;;;;;;5075545;28;20481;-74
2022/05/08 09:55:59;;;;;;;5.57;4.93;;;19.20;99.90;;;;;;5071195;28;20453;-77
2022/05/08 09:58:27;;;;;;;8.67;6.97;;;19.40;99.90;;;;;;5074218;28;20453;-77
2022/05/08 10:00:56;;;;;;;5.90;5.40;;;19.40;99.90;;;;;;5075186;28;20931;-72
2022/05/08 10:03:23;;;;;;;6.07;5.00;;;19.30;99.90;;;;;;5075558;28;20495;-76
2022/05/08 10:05:50;;;;;;;4.47;4.07;;;19.30;99.90;;;;;;5080695;28;20853;-73
2022/05/08 10:08:20;;;;;;;6.27;5.67;;;19.40;99.90;;;;;;5088144;28;20449;-77
2022/05/08 10:14:04;;;;;;;5.57;4.90;;;19.40;99.90;;;;;;5078318;28;20505;-77
2022/05/08 10:16:52;;;;;;;4.67;4.27;;;19.20;99.90;;;;;;5075936;28;20457;-77
2022/05/08 10:19:53;;;;;;;6.70;5.53;;;19.50;99.90;;;;;;5083515;28;20462;-77
2022/05/08 10:22:20;;;;;;;5.77;5.20;;;19.30;99.90;;;;;;5072066;28;20460;-77
2022/05/08 10:24:55;;;;;;;5.57;4.80;;;19.30;99.90;;;;;;5080485;28;20581;-78
2022/05/08 10:27:25;;;;;;;5.30;4.80;;;19.30;99.90;;;;;;5071462;28;20462;-78
2022/05/08 10:30:29;;;;;;;7.47;6.00;;;19.30;99.90;;;;;;5079428;28;20805;-77
2022/05/08 10:32:57;;;;;;;6.67;5.37;;;19.60;99.90;;;;;;5079490;28;20437;-78
2022/05/08 10:35:26;;;;;;;6.70;5.73;;;19.90;99.90;;;;;;5081819;28;21101;-78
2022/05/08 10:37:53;;;;;;;5.23;4.40;;;19.80;99.90;;;;;;5076354;28;20450;-77
2022/05/08 10:40:38;;;;;;;5.40;4.87;;;19.60;99.90;;;;;;5069922;28;20469;-77
2022/05/08 10:43:30;;;;;;;5.80;5.00;;;19.80;99.90;;;;;;5069215;28;20437;-78
2022/05/08 10:46:18;;;;;;;4.53;4.10;;;19.80;99.90;;;;;;5070318;28;20521;-78
2022/05/08 10:48:47;;;;;;;6.20;4.80;;;19.80;99.90;;;;;;5084289;28;20444;-77
2022/05/08 10:51:14;;;;;;;5.20;4.53;;;20.40;99.90;;;;;;5076906;28;21013;-77
2022/05/08 10:53:41;;;;;;;5.20;4.70;;;20.30;99.90;;;;;;5075516;28;20486;-77
2022/05/08 10:56:10;;;;;;;4.93;3.50;;;20.80;99.90;;;;;;5069120;28;20456;-77
2022/05/08 10:58:38;;;;;;;2.93;2.60;;;20.60;99.90;;;;;;5078897;28;20442;-77
2022/05/08 11:01:06;;;;;;;3.40;3.03;;;20.60;99.90;;;;;;5076256;28;20453;-77
2022/05/08 11:03:36;;;;;;;2.70;2.50;;;20.60;99.90;;;;;;5081834;28;20489;-77
2022/05/08 11:06:05;;;;;;;4.13;3.23;;;20.60;99.90;;;;;;5080426;28;20455;-78
2022/05/08 11:08:34;;;;;;;3.00;2.80;;;20.80;99.90;;;;;;5076355;28;20476;-77
2022/05/08 11:11:08;;;;;;;3.87;2.93;;;20.90;99.90;;;;;;5074844;28;20452;-77
2022/05/08 11:13:46;;;;;;;3.70;3.40;;;21.20;99.90;;;;;;5078895;28;20536;-76
2022/05/08 11:16:16;;;;;;;3.77;2.80;;;21.20;99.90;;;;;;5082215;28;20450;-78
2022/05/08 11:18:43;;;;;;;5.43;3.60;;;21.10;99.90;;;;;;5079960;28;20457;-78
2022/05/08 11:21:15;;;;;;;4.20;3.03;;;21.00;99.90;;;;;;5073792;28;20457;-79
2022/05/08 11:23:44;;;;;;;3.60;2.70;;;20.90;99.90;;;;;;5074847;28;20481;-78
2022/05/08 11:26:12;;;;;;;2.80;2.60;;;21.00;99.90;;;;;;5082189;28;20457;-78
2022/05/08 11:28:47;;;;;;;5.73;3.63;;;21.10;99.90;;;;;;5082413;28;20535;-78
2022/05/08 11:31:15;;;;;;;2.90;2.60;;;21.20;99.90;;;;;;5081256;28;20445;-79
2022/05/08 11:36:30;;;;;;;3.23;3.00;;;21.30;99.90;;;;;;5078116;28;20953;-78
2022/05/08 11:39:01;;;;;;;3.43;3.13;;;21.50;99.90;;;;;;5074452;28;20441;-79
2022/05/08 11:41:29;;;;;;;3.00;2.70;;;21.50;99.90;;;;;;5077553;28;20453;-78
2022/05/08 11:43:57;;;;;;;3.20;2.40;;;21.80;99.90;;;;;;5083988;28;20494;-79
2022/05/08 11:46:34;;;;;;;3.17;2.87;;;21.80;99.90;;;;;;5075748;28;20537;-78
2022/05/08 11:49:02;;;;;;;3.50;2.73;;;21.60;99.90;;;;;;5077998;28;20448;-77
2022/05/08 11:51:42;;;;;;;2.33;2.13;;;21.90;99.90;;;;;;5073615;28;20449;-79
2022/05/08 11:54:22;;;;;;;4.53;2.50;;;21.70;99.90;;;;;;5076223;28;20456;-74
2022/05/08 11:56:51;;;;;;;3.80;3.50;;;21.60;99.90;;;;;;5074819;28;20444;-78
2022/05/08 11:59:20;;;;;;;4.23;3.17;;;21.60;99.90;;;;;;5076034;28;20458;-78
2022/05/08 12:01:52;;;;;;;3.13;2.87;;;21.80;99.90;;;;;;5083529;28;20491;-78
2022/05/08 12:04:24;;;;;;;2.90;2.70;;;21.80;99.90;;;;;;5074678;28;20576;-78
2022/05/08 12:07:04;;;;;;;3.37;3.07;;;21.50;99.90;;;;;;5086494;28;20433;-79
2022/05/08 12:09:32;;;;;;;2.83;2.63;;;21.40;99.90;;;;;;5084495;28;20452;-78
2022/05/08 12:12:29;;;;;;;2.87;2.67;;;22.00;99.90;;;;;;5077455;28;20453;-78
2022/05/08 12:15:01;;;;;;;2.90;2.60;;;22.20;99.90;;;;;;5080433;28;20450;-78
2022/05/08 12:17:28;;;;;;;5.33;3.23;;;22.20;99.90;;;;;;5071704;28;20499;-79
2022/05/08 12:19:56;;;;;;;3.10;2.70;;;22.10;99.90;;;;;;5075915;28;20481;-79
2022/05/08 12:22:27;;;;;;;4.20;2.90;;;22.10;99.90;;;;;;5073860;28;20465;-78
2022/05/08 12:24:55;;;;;;;4.33;3.93;;;22.20;99.90;;;;;;5075621;28;20504;-78
2022/05/08 12:27:22;;;;;;;3.43;3.13;;;22.50;99.90;;;;;;5071483;28;20481;-78
2022/05/08 12:29:50;;;;;;;3.40;3.20;;;22.50;99.90;;;;;;5078872;28;20528;-78
2022/05/08 12:32:18;;;;;;;3.13;2.83;;;22.30;99.90;;;;;;5083326;28;20453;-78
2022/05/08 12:34:45;;;;;;;3.27;2.97;;;22.20;99.90;;;;;;5075788;28;20445;-78
2022/05/08 12:37:14;;;;;;;4.07;3.37;;;22.20;99.90;;;;;;5082934;28;20433;-77
2022/05/08 12:39:44;;;;;;;3.00;2.80;;;22.10;99.90;;;;;;5081567;28;20481;-79
2022/05/08 12:42:12;;;;;;;3.40;3.13;;;22.10;99.90;;;;;;5086578;28;20446;-79
2022/05/08 12:44:39;;;;;;;3.60;3.00;;;22.10;99.90;;;;;;5070941;28;20485;-78
2022/05/08 12:47:07;;;;;;;4.13;3.20;;;21.80;99.90;;;;;;5075384;28;20979;-79
2022/05/08 12:49:35;;;;;;;2.83;2.60;;;21.90;99.90;;;;;;5083749;28;20455;-78
2022/05/08 12:52:03;;;;;;;2.87;2.63;;;22.00;99.90;;;;;;5076463;28;21125;-79
2022/05/08 12:54:30;;;;;;;3.40;3.10;;;22.00;99.90;;;;;;5070112;28;20744;-79
2022/05/08 12:56:59;;;;;;;2.83;2.63;;;22.00;99.90;;;;;;5084532;28;20444;-78
2022/05/08 12:59:47;;;;;;;3.23;2.87;;;21.80;99.90;;;;;;5084502;28;20452;-78
2022/05/08 13:02:15;;;;;;;2.63;2.37;;;21.80;99.90;;;;;;5072619;28;20544;-79
2022/05/08 13:04:42;;;;;;;3.43;3.00;;;21.80;99.90;;;;;;5084691;28;20587;-78
2022/05/08 13:07:09;;;;;;;2.53;2.33;;;21.80;99.90;;;;;;5080785;28;20531;-77
2022/05/08 13:09:37;;;;;;;2.70;2.37;;;22.00;99.90;;;;;;5078959;28;20797;-78
2022/05/08 13:12:07;;;;;;;2.90;2.20;;;21.80;99.90;;;;;;5080474;28;20576;-78
2022/05/08 13:14:34;;;;;;;2.30;2.10;;;22.00;99.90;;;;;;5083570;28;20449;-77
2022/05/08 13:17:02;;;;;;;2.80;2.60;;;22.10;99.90;;;;;;5082706;28;20495;-77
2022/05/08 13:19:33;;;;;;;2.50;2.30;;;22.10;99.30;;;;;;5077207;28;20440;-77
2022/05/08 13:22:00;;;;;;;2.20;2.00;;;22.00;97.50;;;;;;5074198;28;20836;-77
2022/05/08 13:24:27;;;;;;;2.23;2.03;;;22.00;96.40;;;;;;5085730;28;20481;-78
2022/05/08 13:26:56;;;;;;;3.13;2.57;;;22.10;97.30;;;;;;5083112;28;20548;-78
2022/05/08 13:29:24;;;;;;;2.87;2.33;;;22.30;96.70;;;;;;5089304;28;20497;-78
2022/05/08 13:31:54;;;;;;;2.93;2.63;;;22.40;96.10;;;;;;5070874;28;20449;-79
2022/05/08 13:34:24;;;;;;;2.50;2.30;;;22.50;95.20;;;;;;5071161;28;20545;-78
2022/05/08 13:36:51;;;;;;;3.30;2.70;;;22.60;93.70;;;;;;5084337;28;20551;-76
2022/05/08 13:39:18;;;;;;;3.27;2.63;;;22.60;88.60;;;;;;5072919;28;20548;-76
2022/05/08 13:41:45;;;;;;;2.30;2.10;;;22.50;84.40;;;;;;5070223;28;20798;-75
2022/05/08 13:44:12;;;;;;;2.43;2.00;;;22.20;82.80;;;;;;5077284;28;20473;-78